createdAt,value
2023-05-02T00:01:38.077Z,87.50
2023-05-02T00:04:01.955Z,88.30
2023-05-02T00:06:25.901Z,88.30
2023-05-02T00:08:50.680Z,88.40
2023-05-02T00:11:14.443Z,88.90
2023-05-02T00:13:37.698Z,88.90
2023-05-02T00:16:02.391Z,88.80
2023-05-02T00:18:25.730Z,88.90
2023-05-02T00:20:49.111Z,88.80
2023-05-02T00:23:13.262Z,89.20
2023-05-02T00:25:36.555Z,89.00
2023-05-02T00:27:59.756Z,89.40
2023-05-02T00:30:23.233Z,89.60
2023-05-02T00:32:47.861Z,89.70
2023-05-02T00:35:11.842Z,89.80
2023-05-02T00:37:35.963Z,89.90
2023-05-02T00:40:00.595Z,89.80
2023-05-02T00:42:24.100Z,89.80
2023-05-02T00:44:47.445Z,90.20
2023-05-02T00:47:10.794Z,90.10
2023-05-02T00:49:35.452Z,90.10
2023-05-02T00:51:59.526Z,90.40
2023-05-02T00:54:22.841Z,90.20
2023-05-02T00:56:47.134Z,90.40
2023-05-02T00:59:11.750Z,90.30
2023-05-02T01:01:45.295Z,90.20
2023-05-02T01:04:24.709Z,90.50
2023-05-02T01:07:04.006Z,90.60
2023-05-02T01:09:39.043Z,90.80
2023-05-02T01:12:04.434Z,90.80
2023-05-02T01:14:32.640Z,90.90
2023-05-02T01:16:59.179Z,90.80
2023-05-02T01:19:30.795Z,90.70
2023-05-02T01:21:56.447Z,90.60
2023-05-02T01:24:27.897Z,90.40
2023-05-02T01:27:02.540Z,90.40
2023-05-02T01:29:30.867Z,90.20
2023-05-02T01:31:55.206Z,90.10
2023-05-02T01:34:22.674Z,90.10
2023-05-02T01:36:48.657Z,89.90
2023-05-02T01:39:15.492Z,89.90
2023-05-02T01:41:39.784Z,89.70
2023-05-02T01:44:05.136Z,89.80
2023-05-02T01:46:35.492Z,89.80
2023-05-02T01:49:00.500Z,89.80
2023-05-02T01:51:29.775Z,89.70
2023-05-02T01:53:54.376Z,89.60
2023-05-02T01:56:19.582Z,89.50
2023-05-02T01:58:43.300Z,89.40
2023-05-02T02:01:07.542Z,89.30
2023-05-02T02:03:33.089Z,89.40
2023-05-02T02:05:57.944Z,89.40
2023-05-02T02:08:21.225Z,89.40
2023-05-02T02:10:51.618Z,89.60
2023-05-02T02:13:19.597Z,89.50
2023-05-02T02:15:44.940Z,89.20
2023-05-02T02:18:13.608Z,89.20
2023-05-02T02:20:39.097Z,89.30
2023-05-02T02:23:08.118Z,89.40
2023-05-02T02:25:32.499Z,89.40
2023-05-02T02:27:56.368Z,89.60
2023-05-02T02:30:19.577Z,89.50
2023-05-02T02:32:42.946Z,89.50
2023-05-02T02:35:08.079Z,89.40
2023-05-02T02:37:35.037Z,89.60
2023-05-02T02:40:07.167Z,89.40
2023-05-02T02:42:40.121Z,89.20
2023-05-02T02:45:17.930Z,89.50
2023-05-02T02:47:48.760Z,89.40
2023-05-02T02:50:18.569Z,89.20
2023-05-02T02:52:54.922Z,89.40
2023-05-02T02:55:35.716Z,89.20
2023-05-02T02:58:08.987Z,89.20
2023-05-02T03:00:33.904Z,89.40
2023-05-02T03:02:57.877Z,89.60
2023-05-02T03:05:22.753Z,89.50
2023-05-02T03:07:48.081Z,89.40
2023-05-02T03:10:11.917Z,89.40
2023-05-02T03:12:36.257Z,89.40
2023-05-02T03:15:13.785Z,89.40
2023-05-02T03:17:37.930Z,89.30
2023-05-02T03:20:01.452Z,89.30
2023-05-02T03:22:24.955Z,89.20
2023-05-02T03:24:49.923Z,89.30
2023-05-02T03:27:13.221Z,89.20
2023-05-02T03:29:38.547Z,89.10
2023-05-02T03:32:02.388Z,88.90
2023-05-02T03:34:25.740Z,88.90
2023-05-02T03:36:50.621Z,89.10
2023-05-02T03:39:13.993Z,89.30
2023-05-02T03:41:39.193Z,89.30
2023-05-02T03:44:06.373Z,89.00
2023-05-02T03:46:29.917Z,88.90
2023-05-02T03:48:53.292Z,88.90
2023-05-02T03:51:16.636Z,88.90
2023-05-02T03:53:42.354Z,88.80
2023-05-02T03:56:07.996Z,88.80
2023-05-02T03:58:42.576Z,88.80
2023-05-02T04:01:16.117Z,88.80
2023-05-02T04:03:42.134Z,88.70
2023-05-02T04:06:07.062Z,88.60
2023-05-02T04:08:30.780Z,88.10
2023-05-02T04:10:54.514Z,88.20
2023-05-02T04:13:18.228Z,88.20
2023-05-02T04:15:46.705Z,88.30
2023-05-02T04:18:13.447Z,88.20
2023-05-02T04:20:37.425Z,87.90
2023-05-02T04:23:00.846Z,87.80
2023-05-02T04:25:24.475Z,87.30
2023-05-02T04:27:50.248Z,87.50
2023-05-02T04:30:16.472Z,87.70
2023-05-02T04:32:46.543Z,87.80
2023-05-02T04:35:11.007Z,87.70
2023-05-02T04:37:35.230Z,87.80
2023-05-02T04:39:58.770Z,88.30
2023-05-02T04:42:25.046Z,89.00
2023-05-02T04:45:08.582Z,89.60
2023-05-02T04:47:32.171Z,90.30
2023-05-02T04:49:57.972Z,90.20
2023-05-02T04:52:21.565Z,90.20
2023-05-02T04:54:44.820Z,90.60
2023-05-02T04:57:09.978Z,90.90
2023-05-02T04:59:36.525Z,91.00
2023-05-02T05:02:00.096Z,91.30
2023-05-02T05:04:23.565Z,91.30
2023-05-02T05:06:49.218Z,91.80
2023-05-02T05:09:13.303Z,91.70
2023-05-02T05:11:36.586Z,91.80
2023-05-02T05:14:00.732Z,91.90
2023-05-02T05:16:25.155Z,92.40
2023-05-02T05:18:49.565Z,92.30
2023-05-02T05:21:12.991Z,92.50
2023-05-02T05:23:39.281Z,92.60
2023-05-02T05:26:11.384Z,92.40
2023-05-02T05:28:36.918Z,92.40
2023-05-02T05:31:06.358Z,92.40
2023-05-02T05:33:30.064Z,92.00
2023-05-02T05:35:53.418Z,92.00
2023-05-02T05:38:16.694Z,92.00
2023-05-02T05:40:43.228Z,92.10
2023-05-02T05:43:06.602Z,91.90
2023-05-02T05:45:33.214Z,92.00
2023-05-02T05:47:56.712Z,91.90
2023-05-02T05:50:22.491Z,91.70
2023-05-02T05:52:45.801Z,91.50
2023-05-02T05:55:11.113Z,91.50
2023-05-02T05:57:35.844Z,91.40
2023-05-02T05:59:59.300Z,91.30
2023-05-02T06:02:23.393Z,91.10
2023-05-02T06:04:47.176Z,91.30
2023-05-02T06:07:13.569Z,91.20
2023-05-02T06:09:36.857Z,90.80
2023-05-02T06:12:02.147Z,90.30
2023-05-02T06:14:29.028Z,90.70
2023-05-02T06:16:52.471Z,90.40
2023-05-02T06:19:15.976Z,90.30
2023-05-02T06:21:39.372Z,90.20
2023-05-02T06:24:03.469Z,89.90
2023-05-02T06:26:26.735Z,90.00
2023-05-02T06:28:50.425Z,88.80
2023-05-02T06:31:16.326Z,89.30
2023-05-02T06:33:40.105Z,88.60
2023-05-02T06:36:03.520Z,88.90
2023-05-02T06:38:27.048Z,88.90
2023-05-02T06:40:50.769Z,88.70
2023-05-02T06:43:14.224Z,88.80
2023-05-02T06:45:37.530Z,88.80
2023-05-02T06:48:02.584Z,87.80
2023-05-02T06:50:25.900Z,87.80
2023-05-02T06:52:49.169Z,87.70
2023-05-02T06:55:12.463Z,87.70
2023-05-02T06:57:35.763Z,87.40
2023-05-02T06:59:59.142Z,87.20
2023-05-02T07:02:22.737Z,87.60
2023-05-02T07:04:47.519Z,87.00
2023-05-02T07:07:11.241Z,87.10
2023-05-02T07:09:34.542Z,87.40
2023-05-02T07:11:57.849Z,86.80
2023-05-02T07:14:21.628Z,86.70
2023-05-02T07:16:44.897Z,83.70
2023-05-02T07:19:08.376Z,83.20
2023-05-02T07:21:33.677Z,82.00
2023-05-02T07:23:57.685Z,82.30
2023-05-02T07:26:21.106Z,83.30
2023-05-02T07:28:44.446Z,82.30
2023-05-02T07:31:08.063Z,82.60
2023-05-02T07:33:31.316Z,82.60
2023-05-02T07:35:54.554Z,83.50
2023-05-02T07:38:19.163Z,81.50
2023-05-02T07:40:43.453Z,81.20
2023-05-02T07:43:07.523Z,81.40
2023-05-02T07:45:31.957Z,81.80
2023-05-02T07:47:55.316Z,82.30
2023-05-02T07:50:18.792Z,82.20
2023-05-02T07:52:42.081Z,82.30
2023-05-02T07:55:08.382Z,82.50
2023-05-02T07:57:31.656Z,83.00
2023-05-02T07:59:57.143Z,82.80
2023-05-02T08:02:21.655Z,83.50
2023-05-02T08:04:45.394Z,83.50
2023-05-02T08:07:08.722Z,83.90
2023-05-02T08:09:32.025Z,83.30
2023-05-02T08:11:56.670Z,83.10
2023-05-02T08:14:19.977Z,82.20
2023-05-02T08:16:46.123Z,82.30
2023-05-02T08:19:09.919Z,82.50
2023-05-02T08:21:33.255Z,83.50
2023-05-02T08:24:00.028Z,83.30
2023-05-02T08:26:24.756Z,83.30
2023-05-02T08:28:49.315Z,84.10
2023-05-02T08:31:12.795Z,84.70
2023-05-02T08:33:36.034Z,81.20
2023-05-02T08:36:00.272Z,82.00
2023-05-02T08:38:23.517Z,81.10
2023-05-02T08:40:47.275Z,80.30
2023-05-02T08:43:14.676Z,79.90
2023-05-02T08:45:42.539Z,77.40
2023-05-02T08:48:10.423Z,78.00
2023-05-02T08:50:37.523Z,77.50
2023-05-02T08:53:01.096Z,77.20
2023-05-02T08:55:27.803Z,77.70
2023-05-02T08:57:51.313Z,79.60
2023-05-02T09:00:16.592Z,80.80
2023-05-02T09:02:55.787Z,80.80
2023-05-02T09:05:25.156Z,79.90
2023-05-02T09:07:50.365Z,80.20
2023-05-02T09:10:13.920Z,79.00
2023-05-02T09:12:37.189Z,77.50
2023-05-02T09:15:16.405Z,79.80
2023-05-02T09:17:48.563Z,78.40
2023-05-02T09:20:13.001Z,78.20
2023-05-02T09:22:36.482Z,75.10
2023-05-02T09:25:00.034Z,76.00
2023-05-02T09:27:23.965Z,74.30
2023-05-02T09:29:47.283Z,74.60
2023-05-02T09:32:15.655Z,72.60
2023-05-02T09:34:40.314Z,72.70
2023-05-02T09:37:05.499Z,74.50
2023-05-02T09:39:30.073Z,68.20
2023-05-02T09:41:54.112Z,71.30
2023-05-02T09:44:19.538Z,72.10
2023-05-02T09:46:44.316Z,69.00
2023-05-02T09:49:07.586Z,71.10
2023-05-02T09:51:32.298Z,67.50
2023-05-02T09:53:56.173Z,71.00
2023-05-02T09:56:20.103Z,66.00
2023-05-02T09:58:43.514Z,68.10
2023-05-02T10:01:06.869Z,68.00
2023-05-02T10:03:32.101Z,69.60
2023-05-02T10:05:55.738Z,66.90
2023-05-02T10:08:21.187Z,69.80
2023-05-02T10:10:52.204Z,70.00
2023-05-02T10:13:18.451Z,71.30
2023-05-02T10:15:45.779Z,68.70
2023-05-02T10:18:15.163Z,70.50
2023-05-02T10:20:44.907Z,70.60
2023-05-02T10:23:09.688Z,69.20
2023-05-02T10:25:35.285Z,69.80
2023-05-02T10:27:59.845Z,67.20
2023-05-02T10:30:23.989Z,68.50
2023-05-02T10:32:49.113Z,68.30
2023-05-02T10:35:13.735Z,68.10
2023-05-02T10:37:40.177Z,66.00
2023-05-02T10:40:04.328Z,70.00
2023-05-02T10:42:30.045Z,68.20
2023-05-02T10:44:55.507Z,66.70
2023-05-02T10:47:22.493Z,69.10
2023-05-02T10:49:52.889Z,65.70
2023-05-02T10:52:29.132Z,67.40
2023-05-02T10:54:53.270Z,65.70
2023-05-02T10:57:16.506Z,68.60
2023-05-02T10:59:43.100Z,66.70
2023-05-02T11:02:07.465Z,64.20
2023-05-02T11:05:04.199Z,68.60
2023-05-02T11:07:27.939Z,63.40
2023-05-02T11:09:51.152Z,61.30
2023-05-02T11:12:48.947Z,64.50
2023-05-02T11:15:13.666Z,61.70
2023-05-02T11:18:01.383Z,65.70
2023-05-02T11:20:27.758Z,64.00
2023-05-02T11:22:52.010Z,64.80
2023-05-02T11:25:38.172Z,62.60
2023-05-02T11:28:02.030Z,62.90
2023-05-02T11:30:41.708Z,65.70
2023-05-02T11:33:20.139Z,63.70
2023-05-02T11:35:50.633Z,59.90
2023-05-02T11:38:18.080Z,60.80
2023-05-02T11:40:41.815Z,62.60
2023-05-02T11:43:14.967Z,61.60
2023-05-02T11:45:40.220Z,65.60
2023-05-02T11:48:04.131Z,64.60
2023-05-02T11:50:30.359Z,61.20
2023-05-02T11:52:53.731Z,61.70
2023-05-02T11:55:17.131Z,59.50
2023-05-02T11:57:41.253Z,59.20
2023-05-02T12:00:06.230Z,60.60
2023-05-02T12:02:41.302Z,59.30
2023-05-02T12:05:06.630Z,59.40
2023-05-02T12:07:37.865Z,61.40
2023-05-02T12:10:01.194Z,54.40
2023-05-02T12:12:25.036Z,54.90
2023-05-02T12:14:48.383Z,56.70
2023-05-02T12:17:11.823Z,54.20
2023-05-02T12:19:37.973Z,56.50
2023-05-02T12:22:01.356Z,54.00
2023-05-02T12:24:24.735Z,54.80
2023-05-02T12:26:48.824Z,60.60
2023-05-02T12:29:12.912Z,54.80
2023-05-02T12:31:36.202Z,58.00
2023-05-02T12:34:00.494Z,54.50
2023-05-02T12:36:25.548Z,55.20
2023-05-02T12:38:55.100Z,56.40
2023-05-02T12:41:18.803Z,54.00
2023-05-02T12:43:49.755Z,58.00
2023-05-02T12:46:13.518Z,51.80
2023-05-02T12:48:37.170Z,51.60
2023-05-02T12:51:00.508Z,53.80
2023-05-02T12:53:47.451Z,56.70
2023-05-02T12:56:11.409Z,57.60
2023-05-02T12:58:43.896Z,51.60
2023-05-02T13:01:10.105Z,55.60
2023-05-02T13:03:33.504Z,51.10
2023-05-02T13:05:56.838Z,57.50
2023-05-02T13:08:20.763Z,56.30
2023-05-02T13:10:45.456Z,55.00
2023-05-02T13:13:08.729Z,54.70
2023-05-02T13:15:33.351Z,54.30
2023-05-02T13:17:56.884Z,56.70
2023-05-02T13:20:20.525Z,54.30
2023-05-02T13:22:43.805Z,53.30
2023-05-02T13:25:09.871Z,54.50
2023-05-02T13:27:35.059Z,52.20
2023-05-02T13:29:58.473Z,51.90
2023-05-02T13:32:22.044Z,51.10
2023-05-02T13:34:45.477Z,51.30
2023-05-02T13:37:08.737Z,50.50
2023-05-02T13:39:31.996Z,52.50
2023-05-02T13:41:55.363Z,49.70
2023-05-02T13:44:19.983Z,52.90
2023-05-02T13:46:43.411Z,50.80
2023-05-02T13:49:07.330Z,50.50
2023-05-02T13:51:31.482Z,52.50
2023-05-02T13:53:55.215Z,53.30
2023-05-02T13:56:18.609Z,51.30
2023-05-02T13:58:42.056Z,50.60
2023-05-02T14:01:06.960Z,52.70
2023-05-02T14:03:30.376Z,50.70
2023-05-02T14:05:53.628Z,51.80
2023-05-02T14:08:18.581Z,54.00
2023-05-02T14:10:41.780Z,50.60
2023-05-02T14:13:05.221Z,50.10
2023-05-02T14:15:28.465Z,53.30
2023-05-02T14:17:53.350Z,50.90
2023-05-02T14:20:16.673Z,52.80
2023-05-02T14:22:39.981Z,52.30
2023-05-02T14:25:03.208Z,47.30
2023-05-02T14:27:26.857Z,48.90
2023-05-02T14:29:50.412Z,56.80
2023-05-02T14:32:13.822Z,50.00
2023-05-02T14:34:38.406Z,54.30
2023-05-02T14:37:01.974Z,47.20
2023-05-02T14:39:25.662Z,47.70
2023-05-02T14:41:49.147Z,51.30
2023-05-02T14:44:12.466Z,52.70
2023-05-02T14:46:35.772Z,51.50
2023-05-02T14:48:59.470Z,47.60
2023-05-02T14:51:24.201Z,48.40
2023-05-02T14:53:49.493Z,51.30
2023-05-02T14:56:17.328Z,49.90
2023-05-02T14:58:40.582Z,52.30
2023-05-02T15:01:03.868Z,47.90
2023-05-02T15:03:27.418Z,51.80
2023-05-02T15:05:50.852Z,49.70
2023-05-02T15:08:15.965Z,49.20
2023-05-02T15:10:39.331Z,48.80
2023-05-02T15:13:03.836Z,50.70
2023-05-02T15:15:27.235Z,50.20
2023-05-02T15:17:50.486Z,45.90
2023-05-02T15:20:14.459Z,46.30
2023-05-02T15:22:37.698Z,49.20
2023-05-02T15:25:03.978Z,51.30
2023-05-02T15:27:28.598Z,48.00
2023-05-02T15:29:51.793Z,46.50
2023-05-02T15:32:19.267Z,45.60
2023-05-02T15:34:42.866Z,46.40
2023-05-02T15:37:06.465Z,48.00
2023-05-02T15:39:29.791Z,47.40
2023-05-02T15:41:54.558Z,49.80
2023-05-02T15:44:17.890Z,47.30
2023-05-02T15:46:46.568Z,48.00
2023-05-02T15:49:10.032Z,50.80
2023-05-02T15:51:33.364Z,46.00
2023-05-02T15:53:56.952Z,49.20
2023-05-02T15:56:21.238Z,49.00
2023-05-02T15:58:46.313Z,50.50
2023-05-02T16:01:09.591Z,49.80
2023-05-02T16:03:34.246Z,50.40
2023-05-02T16:05:59.215Z,51.80
2023-05-02T16:08:22.530Z,49.60
2023-05-02T16:10:45.773Z,50.80
2023-05-02T16:13:09.097Z,50.00
2023-05-02T16:15:33.815Z,50.20
2023-05-02T16:17:57.288Z,49.80
2023-05-02T16:20:21.040Z,47.90
2023-05-02T16:22:46.311Z,50.20
2023-05-02T16:25:10.005Z,50.50
2023-05-02T16:27:34.783Z,49.60
2023-05-02T16:29:58.047Z,49.40
2023-05-02T16:32:23.475Z,51.00
2023-05-02T16:34:46.736Z,49.60
2023-05-02T16:37:10.045Z,51.60
2023-05-02T16:39:34.244Z,50.50
2023-05-02T16:41:57.532Z,51.80
2023-05-02T16:44:20.946Z,51.20
2023-05-02T16:46:44.234Z,51.50
2023-05-02T16:49:09.055Z,51.50
2023-05-02T16:51:32.563Z,50.50
2023-05-02T16:53:55.766Z,49.40
2023-05-02T16:56:19.028Z,49.30
2023-05-02T16:58:42.336Z,50.80
2023-05-02T17:01:06.362Z,52.60
2023-05-02T17:03:30.082Z,51.20
2023-05-02T17:05:54.822Z,49.00
2023-05-02T17:08:18.040Z,52.00
2023-05-02T17:10:41.248Z,51.50
2023-05-02T17:13:04.511Z,53.60
2023-05-02T17:15:27.762Z,51.80
2023-05-02T17:17:51.131Z,53.70
2023-05-02T17:20:14.614Z,51.10
2023-05-02T17:22:41.080Z,51.50
2023-05-02T17:25:06.401Z,53.20
2023-05-02T17:27:29.719Z,50.80
2023-05-02T17:29:53.210Z,54.30
2023-05-02T17:32:16.450Z,51.30
2023-05-02T17:34:39.759Z,53.40
2023-05-02T17:37:03.053Z,52.20
2023-05-02T17:39:27.614Z,53.30
2023-05-02T17:41:50.964Z,55.80
2023-05-02T17:44:14.204Z,54.90
2023-05-02T17:46:38.399Z,55.50
2023-05-02T17:49:01.781Z,55.20
2023-05-02T17:51:25.119Z,57.10
2023-05-02T17:53:49.158Z,55.60
2023-05-02T17:56:15.963Z,55.50
2023-05-02T17:58:39.236Z,57.00
2023-05-02T18:01:08.564Z,55.90
2023-05-02T18:03:31.926Z,56.20
2023-05-02T18:05:55.225Z,56.40
2023-05-02T18:08:18.446Z,56.70
2023-05-02T18:10:42.745Z,54.50
2023-05-02T18:13:07.788Z,56.20
2023-05-02T18:15:31.250Z,56.80
2023-05-02T18:17:56.582Z,55.90
2023-05-02T18:20:19.989Z,57.00
2023-05-02T18:22:43.226Z,58.40
2023-05-02T18:25:07.768Z,57.20
2023-05-02T18:27:31.232Z,56.30
2023-05-02T18:29:55.988Z,57.80
2023-05-02T18:32:19.278Z,59.50
2023-05-02T18:34:42.620Z,61.10
2023-05-02T18:37:05.898Z,57.60
2023-05-02T18:39:31.763Z,59.70
2023-05-02T18:41:54.993Z,58.30
2023-05-02T18:44:18.267Z,61.70
2023-05-02T18:46:43.034Z,60.00
2023-05-02T18:49:08.990Z,59.50
2023-05-02T18:51:32.319Z,61.30
2023-05-02T18:53:55.614Z,61.20
2023-05-02T18:56:19.085Z,62.30
2023-05-02T18:58:42.985Z,62.30
2023-05-02T19:01:14.825Z,59.80
2023-05-02T19:03:39.864Z,61.20
2023-05-02T19:06:04.300Z,60.90
2023-05-02T19:08:27.558Z,63.80
2023-05-02T19:10:50.828Z,64.10
2023-05-02T19:13:14.573Z,64.70
2023-05-02T19:15:37.890Z,65.60
2023-05-02T19:18:01.216Z,63.90
2023-05-02T19:20:25.905Z,64.40
2023-05-02T19:22:49.866Z,64.70
2023-05-02T19:25:13.551Z,65.20
2023-05-02T19:27:36.930Z,66.40
2023-05-02T19:30:00.271Z,63.80
2023-05-02T19:32:24.007Z,65.00
2023-05-02T19:34:47.319Z,65.70
2023-05-02T19:37:11.924Z,66.70
2023-05-02T19:39:35.139Z,66.60
2023-05-02T19:41:59.055Z,65.60
2023-05-02T19:44:22.350Z,67.10
2023-05-02T19:46:46.106Z,66.00
2023-05-02T19:49:09.553Z,66.90
2023-05-02T19:51:34.267Z,66.60
2023-05-02T19:53:59.047Z,67.90
2023-05-02T19:56:25.310Z,66.60
2023-05-02T19:58:48.573Z,66.90
2023-05-02T20:01:11.957Z,67.20
2023-05-02T20:03:35.643Z,65.60
2023-05-02T20:05:59.203Z,65.40
2023-05-02T20:08:26.282Z,68.90
2023-05-02T20:10:50.881Z,69.00
2023-05-02T20:13:14.581Z,67.80
2023-05-02T20:15:38.206Z,68.00
2023-05-02T20:18:02.253Z,69.60
2023-05-02T20:20:26.015Z,70.50
2023-05-02T20:22:49.158Z,69.50
2023-05-02T20:25:12.882Z,69.70
2023-05-02T20:27:37.578Z,69.50
2023-05-02T20:30:01.319Z,68.50
2023-05-02T20:32:24.915Z,67.70
2023-05-02T20:34:48.260Z,69.50
2023-05-02T20:37:12.386Z,69.10
2023-05-02T20:39:36.366Z,69.10
2023-05-02T20:41:59.678Z,67.90
2023-05-02T20:44:28.432Z,68.30
2023-05-02T20:46:52.576Z,68.20
2023-05-02T20:49:16.071Z,68.70
2023-05-02T20:51:39.329Z,68.90
2023-05-02T20:54:02.607Z,67.70
2023-05-02T20:56:26.912Z,67.50
2023-05-02T20:58:50.192Z,67.10
2023-05-02T21:01:14.973Z,69.00
2023-05-02T21:03:40.710Z,68.00
2023-05-02T21:06:04.128Z,68.20
2023-05-02T21:08:27.389Z,66.70
2023-05-02T21:10:51.432Z,67.70
2023-05-02T21:13:14.821Z,68.90
2023-05-02T21:15:38.351Z,68.60
2023-05-02T21:18:04.660Z,67.10
2023-05-02T21:20:28.370Z,67.10
2023-05-02T21:22:51.596Z,67.50
2023-05-02T21:25:15.553Z,70.10
2023-05-02T21:27:40.003Z,68.40
2023-05-02T21:30:05.543Z,67.80
2023-05-02T21:32:29.963Z,69.40
2023-05-02T21:34:55.798Z,69.10
2023-05-02T21:37:19.886Z,68.40
2023-05-02T21:39:43.803Z,68.50
2023-05-02T21:42:08.600Z,69.20
2023-05-02T21:44:32.160Z,69.70
2023-05-02T21:46:55.795Z,69.70
2023-05-02T21:49:19.229Z,70.10
2023-05-02T21:51:44.649Z,68.80
2023-05-02T21:54:08.391Z,68.80
2023-05-02T21:56:31.684Z,69.70
2023-05-02T21:58:54.977Z,69.50
2023-05-02T22:01:18.249Z,69.30
2023-05-02T22:03:41.525Z,70.50
2023-05-02T22:06:06.429Z,70.30
2023-05-02T22:08:31.713Z,69.50
2023-05-02T22:10:55.081Z,70.80
2023-05-02T22:13:18.408Z,69.30
2023-05-02T22:15:45.344Z,69.80
2023-05-02T22:18:10.572Z,71.40
2023-05-02T22:20:33.917Z,70.50
2023-05-02T22:22:57.817Z,71.50
2023-05-02T22:25:24.016Z,72.50
2023-05-02T22:27:49.140Z,71.70
2023-05-02T22:30:12.912Z,71.70
2023-05-02T22:32:37.291Z,72.40
2023-05-02T22:35:01.145Z,72.90
2023-05-02T22:37:26.165Z,72.10
2023-05-02T22:39:49.359Z,71.60
2023-05-02T22:42:14.075Z,73.00
2023-05-02T22:44:50.459Z,74.00
2023-05-02T22:47:18.292Z,74.80
2023-05-02T22:49:42.910Z,73.90
2023-05-02T22:52:06.993Z,75.20
2023-05-02T22:54:30.299Z,76.30
2023-05-02T22:56:54.432Z,73.80
2023-05-02T22:59:19.159Z,75.20
2023-05-02T23:01:42.502Z,76.80
2023-05-02T23:04:06.037Z,76.70
2023-05-02T23:06:29.439Z,75.70
2023-05-02T23:08:52.757Z,75.60
2023-05-02T23:11:16.019Z,77.10
2023-05-02T23:13:39.335Z,76.90
2023-05-02T23:16:04.450Z,77.50
2023-05-02T23:18:27.873Z,77.70
2023-05-02T23:20:51.107Z,77.40
2023-05-02T23:23:14.521Z,78.20
2023-05-02T23:25:38.131Z,78.40
2023-05-02T23:28:01.350Z,78.50
2023-05-02T23:30:24.694Z,78.60
2023-05-02T23:32:49.543Z,79.60
2023-05-02T23:35:13.754Z,80.10
2023-05-02T23:37:37.121Z,79.70
2023-05-02T23:40:01.536Z,79.20
2023-05-02T23:42:25.276Z,80.30
2023-05-02T23:44:48.539Z,79.70
2023-05-02T23:47:12.308Z,80.40
2023-05-02T23:49:37.917Z,80.40
2023-05-02T23:52:02.591Z,80.10
2023-05-02T23:54:26.144Z,80.50
2023-05-02T23:56:49.452Z,81.40
2023-05-02T23:59:12.976Z,81.70
